Time;durP1;ratioP1;P1;durP2;ratioP2;P2;SDS_P1;SDS_P2;PMS_P1;PMS_P2;Temp;Humidity;BMP_temperature;BMP_pressure;BME280_temperature;BME280_humidity;BME280_pressure;Samples;Min_cycle;Max_cycle;Signal;HPM_P1;HPM_P2
2022/09/25 00:01:21;;;;;;;8.50;6.05;;;;;;;17.22;89.15;100591.44;5055354;28;20048;-70
2022/09/25 00:03:50;;;;;;;7.80;6.53;;;;;;;17.22;89.94;100579.56;5066059;28;20045;-70
2022/09/25 00:06:21;;;;;;;9.90;6.10;;;;;;;17.25;89.26;100582.47;5072099;28;20059;-70
2022/09/25 00:08:50;;;;;;;8.00;5.82;;;;;;;17.30;88.16;100581.53;5069450;28;20040;-70
2022/09/25 00:11:23;;;;;;;8.45;6.72;;;;;;;17.27;87.86;100587.69;5072182;28;20055;-71
2022/09/25 00:13:52;;;;;;;11.48;7.07;;;;;;;17.33;87.25;100581.69;5072079;28;20403;-70
2022/09/25 00:16:22;;;;;;;7.13;5.72;;;;;;;17.25;88.08;100579.72;5070862;28;20037;-70
2022/09/25 00:21:37;;;;;;;10.65;6.53;;;;;;;17.19;89.51;100570.78;5061979;28;20041;-70
2022/09/25 00:24:08;;;;;;;9.50;6.43;;;;;;;17.17;88.84;100567.50;5066163;28;20398;-71
2022/09/25 00:26:39;;;;;;;8.70;6.60;;;;;;;17.32;87.39;100570.94;5071848;28;20055;-70
2022/09/25 00:29:13;;;;;;;9.52;6.57;;;;;;;17.19;88.34;100579.06;5069851;28;20517;-70
2022/09/25 00:31:41;;;;;;;8.82;7.00;;;;;;;17.26;87.17;100575.00;5071987;28;20041;-70
2022/09/25 00:34:10;;;;;;;9.60;7.63;;;;;;;17.17;86.84;100567.50;5071807;28;20070;-71
2022/09/25 00:36:38;;;;;;;11.35;7.55;;;;;;;17.11;87.58;100570.78;5070624;28;20041;-70
2022/09/25 00:39:06;;;;;;;10.68;8.05;;;;;;;17.11;87.14;100554.19;5070515;28;20044;-71
2022/09/25 00:41:34;;;;;;;12.90;8.07;;;;;;;16.99;87.14;100546.50;5071452;28;20044;-70
2022/09/25 00:44:23;;;;;;;12.70;8.75;;;;;;;17.02;88.09;100545.88;5071969;28;20055;-70
2022/09/25 00:46:53;;;;;;;11.80;8.10;;;;;;;17.11;88.34;100552.22;5071567;28;20047;-71
2022/09/25 00:49:25;;;;;;;14.25;8.48;;;;;;;17.07;87.12;100545.75;5064399;28;20041;-70
2022/09/25 00:52:02;;;;;;;12.05;8.23;;;;;;;17.04;89.21;100535.31;5071662;28;20875;-70
2022/09/25 00:54:35;;;;;;;11.30;7.75;;;;;;;17.04;89.38;100524.25;5065377;28;20045;-70
2022/09/25 00:57:07;;;;;;;9.77;7.03;;;;;;;17.02;88.15;100513.50;5070686;28;20059;-70
2022/09/25 00:59:49;;;;;;;11.55;8.02;;;;;;;16.92;89.26;100524.88;5061388;28;20051;-70
2022/09/25 01:02:29;;;;;;;11.40;7.82;;;;;;;16.97;89.87;100523.91;5051911;28;20049;-70
2022/09/25 01:05:02;;;;;;;11.07;8.07;;;;;;;17.03;89.71;100517.09;5053893;28;20060;-71
2022/09/25 01:07:33;;;;;;;10.70;7.68;;;;;;;17.10;89.97;100522.16;5061023;28;20059;-70
2022/09/25 01:10:05;;;;;;;9.80;7.70;;;;;;;17.24;89.35;100517.25;5059632;28;20044;-70
2022/09/25 01:12:42;;;;;;;11.07;8.00;;;;;;;17.24;89.04;100511.72;5055371;28;20041;-70
2022/09/25 01:15:12;;;;;;;11.02;7.75;;;;;;;17.23;89.28;100514.81;5054942;28;20068;-70
2022/09/25 01:18:17;;;;;;;13.18;8.15;;;;;;;17.18;90.14;100508.31;5055140;28;20041;-70
2022/09/25 01:21:04;;;;;;;;;;;;;;;17.16;89.66;100510.59;5037383;28;20059;-70
2022/09/25 01:23:54;;;;;;;12.02;8.30;;;;;;;17.13;89.50;100508.50;5055322;28;19924;-70
2022/09/25 01:26:34;;;;;;;15.65;8.00;;;;;;;17.13;90.47;100504.91;5063972;28;20049;-70
2022/09/25 01:29:29;;;;;;;13.10;7.82;;;;;;;17.06;87.76;100508.19;5056192;28;20181;-70
2022/09/25 01:32:05;;;;;;;;;;;;;;;17.12;88.38;100506.88;5052112;28;20496;-70
2022/09/25 01:35:01;;;;;;;12.80;8.70;;;;;;;17.04;89.11;100502.16;5056334;28;19939;-70
2022/09/25 01:37:54;;;;;;;12.20;8.00;;;;;;;17.08;88.69;100494.84;5059213;28;20045;-70
2022/09/25 01:40:28;;;;;;;11.18;8.45;;;;;;;17.24;86.61;100495.13;5055056;28;20052;-70
2022/09/25 01:43:13;;;;;;;12.48;8.80;;;;;;;17.28;87.17;100487.00;5056445;28;20057;-70
2022/09/25 01:46:05;;;;;;;13.43;9.05;;;;;;;17.18;88.54;100479.84;5054896;28;20494;-70
2022/09/25 01:48:35;;;;;;;14.32;8.90;;;;;;;17.12;88.58;100476.47;5059036;28;20052;-70
2022/09/25 01:51:38;;;;;;;11.18;7.85;;;;;;;17.09;88.62;100477.09;5055519;28;20052;-70
2022/09/25 01:54:16;;;;;;;11.77;8.45;;;;;;;16.92;89.28;100464.09;5052838;28;20057;-70
2022/09/25 01:57:17;;;;;;;11.38;7.72;;;;;;;16.92;88.95;100472.38;5054566;28;20037;-71
2022/09/25 02:00:05;;;;;;;10.30;7.25;;;;;;;17.03;89.30;100475.66;5048639;28;20049;-70
2022/09/25 02:03:07;;;;;;;11.63;7.97;;;;;;;17.16;88.20;100471.88;5074346;28;20049;-70
2022/09/25 02:05:47;;;;;;;10.75;7.43;;;;;;;17.22;86.60;100468.94;5070117;28;20059;-70
2022/09/25 02:08:25;;;;;;;9.52;6.93;;;;;;;17.19;87.52;100468.47;5072787;28;20059;-71
2022/09/25 02:10:59;;;;;;;10.95;6.75;;;;;;;17.09;87.41;100466.03;5074384;28;20041;-70
2022/09/25 02:13:36;;;;;;;11.43;7.15;;;;;;;17.11;87.69;100466.50;5074423;28;20048;-70
2022/09/25 02:16:16;;;;;;;10.27;6.93;;;;;;;17.08;88.76;100453.38;5059606;28;20041;-70
2022/09/25 02:22:03;;;;;;;9.93;7.25;;;;;;;17.05;89.54;100448.47;5061794;28;20483;-70
2022/09/25 02:24:55;;;;;;;10.32;7.20;;;;;;;17.08;89.48;100442.31;5057861;28;20041;-71
2022/09/25 02:27:28;;;;;;;10.35;7.80;;;;;;;17.09;89.05;100443.09;5065278;28;20052;-70
2022/09/25 02:30:00;;;;;;;8.98;7.07;;;;;;;17.03;89.41;100445.22;5059974;28;20052;-71
2022/09/25 02:32:30;;;;;;;8.05;6.38;;;;;;;17.09;88.32;100443.94;5073779;28;20056;-71
2022/09/25 02:34:59;;;;;;;7.85;6.28;;;;;;;17.09;88.37;100443.94;5067655;28;20056;-70
2022/09/25 02:37:28;;;;;;;9.13;7.30;;;;;;;17.13;87.87;100444.91;5069458;28;20048;-70
2022/09/25 02:40:00;;;;;;;10.55;6.93;;;;;;;16.98;88.08;100446.19;5055733;28;20041;-71
2022/09/25 02:42:41;;;;;;;10.52;6.88;;;;;;;16.91;89.37;100448.63;5059311;28;20049;-71
2022/09/25 02:45:42;;;;;;;7.05;6.05;;;;;;;16.98;89.77;100465.53;5053624;28;20485;-71
2022/09/25 02:48:25;;;;;;;9.23;6.15;;;;;;;17.09;89.96;100454.16;5057571;28;20067;-70
2022/09/25 02:51:16;;;;;;;9.30;7.40;;;;;;;17.14;89.69;100456.75;5053705;28;20380;-70
2022/09/25 02:54:11;;;;;;;7.68;6.35;;;;;;;17.08;89.82;100455.31;5053537;28;20418;-70
2022/09/25 02:57:14;;;;;;;;;;;;;;;17.16;89.35;100451.72;5053655;28;20063;-70
2022/09/25 02:59:50;;;;;;;7.85;6.03;;;;;;;17.12;88.30;100446.03;5044590;28;19931;-70
2022/09/25 03:02:20;;;;;;;7.20;5.80;;;;;;;17.03;89.40;100461.81;5070140;28;20045;-71
2022/09/25 03:04:50;;;;;;;7.40;5.75;;;;;;;17.06;88.79;100450.91;5073424;28;20037;-71
2022/09/25 03:07:19;;;;;;;9.05;5.93;;;;;;;17.08;88.40;100456.13;5065996;28;20041;-71
2022/09/25 03:09:50;;;;;;;7.80;6.35;;;;;;;16.98;88.72;100464.72;5071098;28;20048;-70
2022/09/25 03:12:18;;;;;;;8.02;6.28;;;;;;;16.98;89.97;100454.50;5051918;28;20052;-71
2022/09/25 03:14:46;;;;;;;8.90;6.90;;;;;;;17.09;88.01;100451.38;5052639;28;20041;-70
2022/09/25 03:17:16;;;;;;;9.93;6.80;;;;;;;17.13;88.40;100453.19;5052770;28;20048;-70
2022/09/25 03:19:44;;;;;;;10.38;6.93;;;;;;;17.11;88.14;100446.38;5064976;28;20059;-70
2022/09/25 03:22:13;;;;;;;8.80;6.63;;;;;;;17.03;88.63;100446.06;5074385;28;20045;-71
2022/09/25 03:24:41;;;;;;;11.40;7.75;;;;;;;17.04;88.56;100452.38;5053437;28;20052;-70
2022/09/25 03:27:09;;;;;;;8.68;6.80;;;;;;;17.09;88.74;100456.91;5050828;28;20045;-71
2022/09/25 03:29:37;;;;;;;9.55;7.00;;;;;;;17.02;89.25;100447.19;5057259;28;20112;-71
2022/09/25 03:32:05;;;;;;;10.30;6.80;;;;;;;16.95;89.71;100437.75;5051629;28;20403;-71
2022/09/25 03:34:32;;;;;;;10.05;6.55;;;;;;;16.94;89.36;100436.91;5056642;28;20060;-71
2022/09/25 03:37:00;;;;;;;8.05;6.30;;;;;;;16.95;89.58;100440.50;5054083;28;20060;-70
2022/09/25 03:39:28;;;;;;;8.45;6.85;;;;;;;16.85;90.16;100450.75;5062936;28;20501;-70
2022/09/25 03:41:56;;;;;;;8.73;6.53;;;;;;;16.83;90.29;100446.69;5052273;28;20072;-70
2022/09/25 03:44:24;;;;;;;9.32;7.07;;;;;;;16.71;90.97;100452.88;5052549;28;20423;-70
2022/09/25 03:46:52;;;;;;;10.50;7.85;;;;;;;16.91;90.12;100451.38;5052460;28;20408;-71
2022/09/25 03:49:20;;;;;;;12.23;8.52;;;;;;;16.96;89.53;100450.44;5051128;28;20060;-70
2022/09/25 03:51:47;;;;;;;9.95;7.88;;;;;;;17.00;89.31;100462.44;5054842;28;20037;-70
2022/09/25 03:54:15;;;;;;;10.95;7.95;;;;;;;16.93;89.49;100462.94;5051213;28;20044;-71
2022/09/25 03:56:43;;;;;;;8.32;7.20;;;;;;;16.99;89.33;100475.47;5055533;28;20041;-70
2022/09/25 03:59:11;;;;;;;11.32;7.90;;;;;;;16.90;89.60;100481.00;5051015;28;20049;-70
2022/09/25 04:01:39;;;;;;;12.95;8.18;;;;;;;16.85;89.16;100472.84;5055349;28;20068;-70
2022/09/25 04:04:07;;;;;;;13.35;8.80;;;;;;;16.79;89.82;100471.41;5056030;28;20045;-70
2022/09/25 04:06:35;;;;;;;12.85;8.32;;;;;;;16.87;89.55;100476.09;5066883;28;20045;-69
2022/09/25 04:09:03;;;;;;;14.93;9.13;;;;;;;16.86;89.73;100468.94;5068428;28;20056;-70
2022/09/25 04:11:31;;;;;;;15.27;8.75;;;;;;;16.88;88.96;100457.56;5072145;28;20047;-70
2022/09/25 04:13:59;;;;;;;11.93;7.78;;;;;;;16.81;89.37;100460.03;5072163;28;20036;-70
2022/09/25 04:16:28;;;;;;;11.55;7.90;;;;;;;16.82;89.05;100462.47;5069796;28;20937;-70
2022/09/25 04:18:56;;;;;;;13.70;8.65;;;;;;;16.87;88.66;100465.03;5065598;28;20059;-70
2022/09/25 04:21:24;;;;;;;11.45;8.15;;;;;;;16.89;88.14;100465.53;5057915;28;20045;-69
2022/09/25 04:26:38;;;;;;;14.60;8.95;;;;;;;16.79;88.62;100457.56;5054295;28;20400;-70
2022/09/25 04:29:07;;;;;;;12.13;8.65;;;;;;;16.77;88.36;100454.34;5065343;28;20490;-71
2022/09/25 04:31:35;;;;;;;10.38;8.02;;;;;;;16.77;88.30;100457.91;5071808;28;20064;-70
2022/09/25 04:34:03;;;;;;;12.75;7.65;;;;;;;16.79;88.96;100449.28;5070281;28;20075;-70
2022/09/25 04:36:31;;;;;;;13.68;8.40;;;;;;;16.89;88.53;100457.25;5069109;28;20402;-70
2022/09/25 04:39:02;;;;;;;13.57;7.82;;;;;;;16.76;88.72;100455.44;5070660;28;20403;-71
2022/09/25 04:41:32;;;;;;;14.07;7.55;;;;;;;16.74;88.14;100449.44;5069328;28;20049;-71
2022/09/25 04:44:04;;;;;;;10.13;7.72;;;;;;;16.75;88.70;100451.06;5070572;28;20044;-71
2022/09/25 04:46:32;;;;;;;10.43;7.60;;;;;;;16.72;89.11;100447.00;5066213;28;20041;-71
2022/09/25 04:49:00;;;;;;;10.73;7.40;;;;;;;16.76;88.85;100447.16;5065045;28;20052;-71
2022/09/25 04:51:28;;;;;;;11.68;7.55;;;;;;;16.78;88.11;100447.66;5058982;28;20052;-71
2022/09/25 04:53:57;;;;;;;11.40;8.18;;;;;;;16.75;88.38;100449.13;5071675;28;20041;-71
2022/09/25 04:56:25;;;;;;;15.32;8.18;;;;;;;16.78;88.25;100450.44;5071516;28;20487;-72
2022/09/25 04:58:56;;;;;;;10.63;8.02;;;;;;;16.89;86.85;100451.72;5067613;28;20059;-72
2022/09/25 05:01:24;;;;;;;9.88;7.28;;;;;;;16.97;87.29;100440.97;5059414;28;20052;-75
2022/09/25 05:03:52;;;;;;;10.35;7.88;;;;;;;16.98;88.08;100442.59;5051178;28;20049;-75
2022/09/25 05:06:21;;;;;;;11.75;7.78;;;;;;;17.01;87.16;100453.03;5057135;28;20048;-75
2022/09/25 05:08:49;;;;;;;11.30;7.85;;;;;;;17.00;86.55;100451.38;5070895;28;20057;-74
2022/09/25 05:11:17;;;;;;;12.23;8.60;;;;;;;17.10;85.52;100451.06;5070496;28;20052;-75
2022/09/25 05:13:50;;;;;;;12.18;8.18;;;;;;;17.13;85.63;100455.13;5085258;28;20052;-75
2022/09/25 05:16:18;;;;;;;11.85;8.23;;;;;;;17.04;85.27;100463.44;5069429;28;20045;-74
2022/09/25 05:18:47;;;;;;;12.10;8.30;;;;;;;16.93;86.54;100455.44;5071276;28;20051;-75
2022/09/25 05:21:15;;;;;;;15.13;9.32;;;;;;;16.95;87.39;100446.84;5068553;28;20507;-75
2022/09/25 05:23:43;;;;;;;12.30;8.48;;;;;;;16.98;87.13;100446.19;5070658;28;20068;-75
2022/09/25 05:26:11;;;;;;;12.75;9.48;;;;;;;16.96;87.82;100451.22;5065822;28;20049;-75
2022/09/25 05:28:39;;;;;;;15.38;11.13;;;;;;;16.93;87.65;100447.16;5068973;28;20047;-73
2022/09/25 05:31:08;;;;;;;18.75;12.27;;;;;;;17.08;87.99;100458.88;5052582;28;20037;-74
2022/09/25 05:33:36;;;;;;;17.88;12.02;;;;;;;17.06;89.14;100458.41;5047767;28;20045;-74
2022/09/25 05:36:06;;;;;;;17.35;11.48;;;;;;;17.06;89.13;100461.19;5054395;28;20052;-74
2022/09/25 05:38:36;;;;;;;16.00;11.07;;;;;;;17.10;88.83;100461.34;5040231;28;20049;-75
2022/09/25 05:41:07;;;;;;;16.45;10.93;;;;;;;17.12;89.02;100448.81;5048304;28;20398;-75
2022/09/25 05:43:39;;;;;;;15.15;11.30;;;;;;;17.19;88.87;100453.81;5049706;28;20049;-75
2022/09/25 05:46:08;;;;;;;16.13;11.40;;;;;;;17.24;88.40;100450.06;5058306;28;20056;-75
2022/09/25 05:48:36;;;;;;;17.27;10.80;;;;;;;17.28;87.80;100439.97;5063076;28;20048;-75
2022/09/25 05:51:05;;;;;;;15.98;10.50;;;;;;;17.23;88.38;100434.63;5070320;28;20040;-75
2022/09/25 05:53:33;;;;;;;13.82;10.23;;;;;;;17.32;87.79;100438.97;5072200;28;20041;-75
2022/09/25 05:56:02;;;;;;;16.30;9.73;;;;;;;17.48;85.93;100437.63;5070157;28;20055;-75
2022/09/25 05:58:32;;;;;;;13.60;9.02;;;;;;;17.62;84.80;100432.72;5071811;28;20488;-75
2022/09/25 06:01:05;;;;;;;11.50;8.43;;;;;;;17.57;84.95;100424.59;5065603;28;20049;-75
2022/09/25 06:03:33;;;;;;;12.43;9.15;;;;;;;17.49;86.15;100428.22;5071658;28;20491;-76
2022/09/25 06:06:02;;;;;;;12.70;8.80;;;;;;;17.52;86.29;100420.06;5060747;28;20044;-74
2022/09/25 06:08:31;;;;;;;16.45;10.55;;;;;;;17.59;86.65;100438.91;5063947;28;20510;-74
2022/09/25 06:11:01;;;;;;;13.90;10.32;;;;;;;17.66;87.17;100417.09;5064963;28;20053;-76
